createdAt,value
2022-10-12T00:00:53.069Z,9.30
2022-10-12T00:03:36.522Z,8.60
2022-10-12T00:06:09.998Z,9.30
2022-10-12T00:08:38.579Z,9.90
2022-10-12T00:11:07.059Z,11.10
2022-10-12T00:13:34.622Z,9.70
2022-10-12T00:16:03.612Z,10.00
2022-10-12T00:18:32.336Z,10.30
2022-10-12T00:21:05.182Z,10.40
2022-10-12T00:23:33.049Z,9.90
2022-10-12T00:26:02.345Z,10.30
2022-10-12T00:28:30.836Z,10.30
2022-10-12T00:30:58.698Z,10.10
2022-10-12T00:33:28.197Z,9.30
2022-10-12T00:35:56.109Z,9.90
2022-10-12T00:38:24.604Z,10.20
2022-10-12T00:40:52.907Z,9.50
2022-10-12T00:43:29.183Z,9.70
2022-10-12T00:45:58.046Z,9.10
2022-10-12T00:48:26.144Z,9.60
2022-10-12T00:50:54.353Z,8.70
2022-10-12T00:53:24.744Z,8.30
2022-10-12T00:55:55.170Z,8.30
2022-10-12T00:58:22.926Z,8.30
2022-10-12T01:00:50.862Z,7.90
2022-10-12T01:03:21.448Z,7.90
2022-10-12T01:05:49.705Z,7.90
2022-10-12T01:08:17.366Z,8.80
2022-10-12T01:10:45.083Z,7.80
2022-10-12T01:13:13.273Z,8.20
2022-10-12T01:15:45.477Z,7.80
2022-10-12T01:18:17.335Z,8.20
2022-10-12T01:20:53.496Z,8.90
2022-10-12T01:23:21.170Z,9.00
2022-10-12T01:26:04.581Z,9.00
2022-10-12T01:28:40.456Z,9.60
2022-10-12T01:31:32.356Z,10.00
2022-10-12T01:34:04.634Z,9.40
2022-10-12T01:37:01.993Z,9.00
2022-10-12T01:39:35.732Z,9.00
2022-10-12T01:42:07.693Z,9.60
2022-10-12T01:44:39.233Z,8.50
2022-10-12T01:47:10.760Z,9.20
2022-10-12T01:49:38.530Z,8.50
2022-10-12T01:52:25.032Z,8.60
2022-10-12T01:54:52.994Z,8.70
2022-10-12T01:57:20.915Z,9.30
2022-10-12T02:00:09.037Z,9.10
2022-10-12T02:02:42.808Z,9.10
2022-10-12T02:05:22.656Z,9.10
2022-10-12T02:07:53.472Z,8.60
2022-10-12T02:10:41.488Z,9.10
2022-10-12T02:13:11.812Z,8.20
2022-10-12T02:15:40.418Z,8.20
2022-10-12T02:18:09.634Z,8.40
2022-10-12T02:20:38.375Z,8.40
2022-10-12T02:23:07.363Z,8.00
2022-10-12T02:25:35.488Z,7.80
2022-10-12T02:28:09.031Z,8.20
2022-10-12T02:30:53.681Z,8.20
2022-10-12T02:33:26.494Z,8.90
2022-10-12T02:36:00.636Z,8.00
2022-10-12T02:38:32.095Z,8.20
2022-10-12T02:41:08.889Z,8.30
2022-10-12T02:43:36.525Z,8.00
2022-10-12T02:46:05.406Z,8.30
2022-10-12T02:48:34.005Z,8.40
2022-10-12T02:51:02.737Z,7.90
2022-10-12T02:53:31.066Z,8.60
2022-10-12T02:56:04.456Z,7.80
2022-10-12T02:58:32.118Z,8.30
2022-10-12T03:00:59.942Z,7.90
2022-10-12T03:03:28.069Z,8.90
2022-10-12T03:05:56.617Z,8.60
2022-10-12T03:08:24.296Z,8.90
2022-10-12T03:10:52.981Z,8.50
2022-10-12T03:13:20.847Z,8.60
2022-10-12T03:15:48.919Z,8.50
2022-10-12T03:18:16.595Z,9.00
2022-10-12T03:20:48.153Z,9.00
2022-10-12T03:23:15.974Z,8.10
2022-10-12T03:25:43.760Z,8.00
2022-10-12T03:28:11.545Z,8.00
2022-10-12T03:30:39.390Z,8.30
2022-10-12T03:33:07.051Z,7.30
2022-10-12T03:35:34.803Z,8.00
2022-10-12T03:38:03.502Z,8.60
2022-10-12T03:40:31.831Z,10.20
2022-10-12T03:43:00.043Z,9.00
2022-10-12T03:45:27.819Z,10.30
2022-10-12T03:47:55.887Z,9.60
2022-10-12T03:50:23.548Z,10.10
2022-10-12T03:52:51.416Z,9.10
2022-10-12T03:55:19.177Z,9.60
2022-10-12T03:57:46.770Z,9.60
2022-10-12T04:00:14.679Z,9.40
2022-10-12T04:02:42.470Z,10.00
2022-10-12T04:05:10.232Z,11.10
2022-10-12T04:07:38.779Z,12.50
2022-10-12T04:10:07.360Z,12.20
2022-10-12T04:12:35.365Z,12.50
2022-10-12T04:15:03.707Z,13.00
2022-10-12T04:17:31.509Z,11.20
2022-10-12T04:19:59.191Z,13.80
2022-10-12T04:22:27.546Z,14.70
2022-10-12T04:24:55.263Z,13.10
2022-10-12T04:27:22.992Z,14.50
2022-10-12T04:29:51.066Z,15.20
2022-10-12T04:32:19.264Z,17.00
2022-10-12T04:34:46.877Z,16.40
2022-10-12T04:37:14.640Z,16.00
2022-10-12T04:39:42.628Z,15.50
2022-10-12T04:42:10.518Z,13.80
2022-10-12T04:44:38.182Z,13.70
2022-10-12T04:47:05.797Z,14.60
2022-10-12T04:49:33.561Z,13.80
2022-10-12T04:52:01.220Z,13.30
2022-10-12T04:54:29.308Z,12.50
2022-10-12T04:56:56.959Z,13.50
2022-10-12T04:59:24.691Z,14.00
2022-10-12T05:01:52.448Z,13.70
2022-10-12T05:04:20.739Z,12.80
2022-10-12T05:06:48.608Z,13.10
2022-10-12T05:09:17.232Z,14.50
2022-10-12T05:11:45.580Z,16.80
2022-10-12T05:14:13.433Z,16.50
2022-10-12T05:16:41.217Z,18.10
2022-10-12T05:19:08.900Z,17.50
2022-10-12T05:21:36.508Z,15.50
2022-10-12T05:24:04.706Z,15.20
2022-10-12T05:26:32.676Z,15.00
2022-10-12T05:29:00.505Z,16.00
2022-10-12T05:31:28.511Z,15.20
2022-10-12T05:33:57.104Z,14.70
2022-10-12T05:36:24.963Z,15.30
2022-10-12T05:38:52.933Z,16.80
2022-10-12T05:41:20.692Z,18.90
2022-10-12T05:43:49.147Z,20.00
2022-10-12T05:46:17.042Z,20.80
2022-10-12T05:48:44.713Z,20.40
2022-10-12T05:51:12.460Z,21.30
2022-10-12T05:53:40.735Z,23.10
2022-10-12T05:56:08.806Z,23.70
2022-10-12T05:58:36.782Z,25.70
2022-10-12T06:01:08.533Z,29.90
2022-10-12T06:03:36.602Z,38.00
2022-10-12T06:06:05.293Z,38.80
2022-10-12T06:08:33.770Z,32.10
2022-10-12T06:11:02.019Z,25.20
2022-10-12T06:13:29.807Z,21.50
2022-10-12T06:15:58.289Z,20.80
2022-10-12T06:18:25.957Z,21.30
2022-10-12T06:21:21.045Z,23.30
2022-10-12T06:23:42.777Z,22.90
2022-10-12T06:26:17.298Z,23.40
2022-10-12T06:28:45.255Z,24.20
2022-10-12T06:31:14.264Z,28.00
2022-10-12T06:33:42.021Z,30.60
2022-10-12T06:36:10.508Z,34.40
2022-10-12T06:38:38.297Z,36.10
2022-10-12T06:41:06.029Z,41.00
2022-10-12T06:43:34.834Z,44.70
2022-10-12T06:46:02.854Z,45.20
2022-10-12T06:48:30.917Z,44.60
2022-10-12T06:50:59.644Z,41.50
2022-10-12T06:53:31.398Z,42.20
2022-10-12T06:55:59.585Z,41.40
2022-10-12T06:58:27.271Z,40.50
2022-10-12T07:00:55.479Z,38.00
2022-10-12T07:03:24.198Z,37.60
2022-10-12T07:05:52.479Z,35.10
2022-10-12T07:08:20.242Z,31.80
2022-10-12T07:10:48.015Z,30.90
2022-10-12T07:13:15.872Z,31.70
2022-10-12T07:15:49.361Z,31.00
2022-10-12T07:18:17.134Z,32.60
2022-10-12T07:20:45.093Z,27.30
2022-10-12T07:23:13.193Z,20.90
2022-10-12T07:25:41.548Z,17.60
2022-10-12T07:28:09.249Z,17.00
2022-10-12T07:30:37.177Z,15.60
2022-10-12T07:33:04.949Z,15.00
2022-10-12T07:35:32.708Z,14.70
2022-10-12T07:38:00.404Z,15.10
2022-10-12T07:40:28.576Z,15.00
2022-10-12T07:43:15.228Z,15.60
2022-10-12T07:45:44.582Z,14.50
2022-10-12T07:48:12.512Z,14.70
2022-10-12T07:50:40.224Z,15.00
2022-10-12T07:53:08.244Z,15.00
2022-10-12T07:55:35.920Z,13.20
2022-10-12T07:58:04.054Z,13.10
2022-10-12T08:00:32.561Z,13.00
2022-10-12T08:03:00.428Z,12.50
2022-10-12T08:05:28.155Z,12.60
2022-10-12T08:07:56.055Z,11.60
2022-10-12T08:10:23.817Z,11.60
2022-10-12T08:12:52.387Z,11.70
2022-10-12T08:15:20.412Z,10.60
2022-10-12T08:17:48.361Z,11.20
2022-10-12T08:20:16.053Z,10.30
2022-10-12T08:22:43.661Z,11.20
2022-10-12T08:25:12.042Z,10.20
2022-10-12T08:27:40.199Z,10.30
2022-10-12T08:30:08.692Z,10.60
2022-10-12T08:32:36.315Z,11.20
2022-10-12T08:35:04.368Z,10.30
2022-10-12T08:37:32.214Z,10.80
2022-10-12T08:40:03.351Z,9.30
2022-10-12T08:42:34.671Z,10.50
2022-10-12T08:45:13.741Z,9.20
2022-10-12T08:47:44.638Z,10.70
2022-10-12T08:50:22.034Z,8.40
2022-10-12T08:55:26.360Z,8.00
2022-10-12T08:57:54.124Z,7.10
2022-10-12T09:00:22.055Z,7.30
2022-10-12T09:02:53.562Z,7.20
2022-10-12T09:05:29.396Z,7.20
2022-10-12T09:08:02.997Z,7.20
2022-10-12T09:10:33.528Z,7.20
2022-10-12T09:13:20.227Z,6.60
2022-10-12T09:16:02.535Z,6.90
2022-10-12T09:18:40.637Z,5.90
2022-10-12T09:21:11.681Z,5.50
2022-10-12T09:23:40.577Z,5.20
2022-10-12T09:26:22.263Z,5.50
2022-10-12T09:28:59.340Z,4.70
2022-10-12T09:31:33.251Z,5.10
2022-10-12T09:34:02.658Z,4.60
2022-10-12T09:36:32.465Z,4.00
2022-10-12T09:39:03.020Z,4.10
2022-10-12T09:41:35.655Z,3.80
2022-10-12T09:44:04.668Z,3.90
2022-10-12T09:46:42.156Z,4.20
2022-10-12T09:49:10.228Z,4.00
2022-10-12T09:51:38.201Z,3.70
2022-10-12T09:54:06.134Z,3.90
2022-10-12T09:56:39.962Z,3.30
2022-10-12T09:59:18.453Z,3.50
2022-10-12T10:01:57.119Z,2.70
2022-10-12T10:04:26.810Z,3.00
2022-10-12T10:06:54.677Z,2.80
2022-10-12T10:09:30.356Z,2.80
2022-10-12T10:12:11.195Z,2.70
2022-10-12T10:14:39.076Z,2.70
2022-10-12T10:17:06.734Z,2.90
2022-10-12T10:19:34.693Z,2.80
2022-10-12T10:22:08.842Z,3.10
2022-10-12T10:24:36.567Z,2.90
2022-10-12T10:27:05.956Z,3.30
2022-10-12T10:29:38.973Z,2.50
2022-10-12T10:32:15.975Z,2.50
2022-10-12T10:34:43.811Z,2.10
2022-10-12T10:37:20.883Z,2.50
2022-10-12T10:39:51.821Z,2.50
2022-10-12T10:42:21.056Z,2.10
2022-10-12T10:44:53.157Z,2.00
2022-10-12T10:47:21.472Z,2.10
2022-10-12T10:49:52.651Z,2.30
2022-10-12T10:52:37.542Z,2.10
2022-10-12T10:55:25.431Z,1.80
2022-10-12T10:58:05.379Z,1.80
2022-10-12T11:00:40.728Z,2.10
2022-10-12T11:03:14.802Z,1.90
2022-10-12T11:05:48.931Z,2.30
2022-10-12T11:08:22.765Z,2.40
2022-10-12T11:10:53.458Z,1.80
2022-10-12T11:13:21.119Z,1.80
2022-10-12T11:15:51.344Z,1.90
2022-10-12T11:18:23.989Z,1.90
2022-10-12T11:21:11.164Z,1.80
2022-10-12T11:23:48.324Z,2.00
2022-10-12T11:28:44.048Z,2.20
2022-10-12T11:31:24.000Z,1.80
2022-10-12T11:33:52.287Z,1.70
2022-10-12T11:36:21.476Z,2.20
2022-10-12T11:39:22.638Z,1.60
2022-10-12T11:42:17.007Z,1.50
2022-10-12T11:44:47.657Z,1.60
2022-10-12T11:47:18.307Z,2.10
2022-10-12T11:49:49.323Z,2.10
2022-10-12T11:52:17.789Z,1.70
2022-10-12T11:54:53.033Z,1.80
2022-10-12T11:57:26.323Z,1.70
2022-10-12T11:59:57.423Z,1.70
2022-10-12T12:02:31.373Z,2.00
2022-10-12T12:04:59.445Z,1.70
2022-10-12T12:07:27.151Z,1.40
2022-10-12T12:09:55.096Z,1.90
2022-10-12T12:12:24.406Z,1.60
2022-10-12T12:14:55.315Z,1.90
2022-10-12T12:17:29.366Z,1.70
2022-10-12T12:20:00.873Z,1.80
2022-10-12T12:22:33.806Z,1.60
2022-10-12T12:25:04.508Z,1.30
2022-10-12T12:27:34.402Z,2.20
2022-10-12T12:30:04.463Z,1.60
2022-10-12T12:32:51.227Z,2.70
2022-10-12T12:35:21.050Z,1.70
2022-10-12T12:37:49.724Z,1.60
2022-10-12T12:40:21.917Z,2.00
2022-10-12T12:42:50.375Z,1.60
2022-10-12T12:45:33.808Z,1.30
2022-10-12T12:48:01.609Z,1.90
2022-10-12T12:50:36.828Z,1.80
2022-10-12T12:53:15.939Z,2.00
2022-10-12T12:55:59.469Z,2.30
2022-10-12T12:58:42.424Z,1.80
2022-10-12T13:01:10.587Z,2.60
2022-10-12T13:03:55.839Z,2.90
2022-10-12T13:06:33.940Z,2.50
2022-10-12T13:09:14.005Z,2.40
2022-10-12T13:11:54.454Z,2.40
2022-10-12T13:14:22.136Z,2.00
2022-10-12T13:17:32.198Z,2.20
2022-10-12T13:20:01.572Z,3.40
2022-10-12T13:22:35.350Z,2.60
2022-10-12T13:25:07.052Z,2.20
2022-10-12T13:27:39.002Z,2.20
2022-10-12T13:30:15.008Z,2.20
2022-10-12T13:33:06.368Z,2.00
2022-10-12T13:35:37.159Z,5.20
2022-10-12T13:38:22.290Z,14.00
2022-10-12T13:40:56.215Z,21.40
2022-10-12T13:43:28.141Z,34.20
2022-10-12T13:45:56.353Z,8.20
2022-10-12T13:48:46.329Z,4.50
2022-10-12T13:51:21.645Z,3.90
2022-10-12T13:53:50.231Z,2.30
2022-10-12T13:56:20.041Z,2.20
2022-10-12T13:58:48.216Z,2.10
2022-10-12T14:01:16.129Z,3.20
2022-10-12T14:03:44.964Z,8.40
2022-10-12T14:06:29.830Z,6.60
2022-10-12T14:08:59.677Z,5.80
2022-10-12T14:11:28.384Z,9.00
2022-10-12T14:13:57.019Z,2.70
2022-10-12T14:16:24.889Z,6.30
2022-10-12T14:18:55.716Z,3.50
2022-10-12T14:21:23.891Z,3.30
2022-10-12T14:23:53.509Z,3.00
2022-10-12T14:26:24.229Z,2.80
2022-10-12T14:28:52.152Z,3.10
2022-10-12T14:31:39.833Z,2.80
2022-10-12T14:34:26.846Z,2.20
2022-10-12T14:37:24.501Z,2.00
2022-10-12T14:39:59.428Z,2.20
2022-10-12T14:42:33.618Z,2.40
2022-10-12T14:45:02.435Z,2.30
2022-10-12T14:47:40.613Z,2.20
2022-10-12T14:50:09.882Z,2.10
2022-10-12T14:52:42.423Z,1.60
2022-10-12T14:55:30.969Z,1.90
2022-10-12T15:00:33.952Z,2.00
2022-10-12T15:03:02.663Z,3.00
2022-10-12T15:05:32.479Z,13.40
2022-10-12T15:08:01.053Z,14.50
2022-10-12T15:10:30.143Z,38.20
2022-10-12T15:12:57.762Z,36.00
2022-10-12T15:15:29.217Z,66.90
2022-10-12T15:17:58.063Z,39.20
2022-10-12T15:20:26.900Z,30.40
2022-10-12T15:22:55.189Z,28.10
2022-10-12T15:25:24.101Z,31.50
2022-10-12T15:27:52.073Z,21.50
2022-10-12T15:30:20.070Z,24.80
2022-10-12T15:32:48.313Z,21.40
2022-10-12T15:35:26.117Z,13.20
2022-10-12T15:37:56.346Z,11.10
2022-10-12T15:40:24.804Z,9.80
2022-10-12T15:42:52.576Z,10.10
2022-10-12T15:45:25.563Z,10.60
2022-10-12T15:47:54.041Z,9.80
2022-10-12T15:50:24.566Z,7.70
2022-10-12T15:52:53.927Z,8.80
2022-10-12T15:55:26.038Z,9.70
2022-10-12T15:57:54.514Z,8.70
2022-10-12T16:00:23.301Z,9.70
2022-10-12T16:02:51.888Z,13.40
2022-10-12T16:05:21.761Z,12.40
2022-10-12T16:07:49.561Z,11.70
2022-10-12T16:10:18.861Z,11.20
2022-10-12T16:12:48.365Z,10.60
2022-10-12T16:15:18.690Z,9.90
2022-10-12T16:17:46.554Z,9.20
2022-10-12T16:20:14.445Z,9.60
2022-10-12T16:22:42.543Z,8.60
2022-10-12T16:25:12.177Z,8.10
2022-10-12T16:27:39.986Z,7.40
2022-10-12T16:30:08.553Z,7.10
2022-10-12T16:32:37.232Z,7.30
2022-10-12T16:35:06.242Z,7.20
2022-10-12T16:37:34.500Z,7.50
2022-10-12T16:40:03.099Z,6.60
2022-10-12T16:42:31.054Z,7.10
2022-10-12T16:44:58.955Z,7.50
2022-10-12T16:47:26.803Z,8.70
2022-10-12T16:49:54.713Z,7.90
2022-10-12T16:52:25.600Z,8.80
2022-10-12T16:54:56.777Z,9.30
2022-10-12T16:57:24.907Z,10.10
2022-10-12T16:59:53.281Z,11.70
2022-10-12T17:02:22.610Z,11.20
2022-10-12T17:04:51.538Z,9.90
2022-10-12T17:07:20.012Z,8.90
2022-10-12T17:09:49.558Z,8.60
2022-10-12T17:12:17.993Z,7.90
2022-10-12T17:14:46.212Z,7.90
2022-10-12T17:17:14.281Z,8.80
2022-10-12T17:19:42.678Z,8.10
2022-10-12T17:22:11.762Z,7.10
2022-10-12T17:24:40.748Z,7.10
2022-10-12T17:27:09.944Z,8.10
2022-10-12T17:29:40.332Z,7.90
2022-10-12T17:32:09.465Z,8.80
2022-10-12T17:34:39.016Z,7.90
2022-10-12T17:37:08.376Z,7.10
2022-10-12T17:39:37.055Z,5.60
2022-10-12T17:42:05.523Z,4.90
2022-10-12T17:44:34.019Z,5.20
2022-10-12T17:47:01.759Z,5.10
2022-10-12T17:49:29.649Z,9.20
2022-10-12T17:51:57.924Z,7.80
2022-10-12T17:54:27.050Z,6.90
2022-10-12T17:56:56.530Z,5.50
2022-10-12T17:59:25.218Z,5.50
2022-10-12T18:01:53.688Z,5.10
2022-10-12T18:04:23.593Z,5.30
2022-10-12T18:06:53.331Z,5.70
2022-10-12T18:09:21.481Z,8.00
2022-10-12T18:11:49.654Z,6.70
2022-10-12T18:14:17.527Z,6.80
2022-10-12T18:16:45.393Z,7.40
2022-10-12T18:19:13.668Z,7.60
2022-10-12T18:21:41.939Z,10.20
2022-10-12T18:24:16.912Z,12.00
2022-10-12T18:26:47.028Z,13.20
2022-10-12T18:29:15.893Z,17.00
2022-10-12T18:31:43.950Z,20.80
2022-10-12T18:34:12.141Z,23.90
2022-10-12T18:36:41.526Z,25.80
2022-10-12T18:39:10.325Z,23.80
2022-10-12T18:41:38.902Z,24.50
2022-10-12T18:44:06.966Z,38.80
2022-10-12T18:46:36.963Z,42.40
2022-10-12T18:49:10.013Z,36.40
2022-10-12T18:51:39.373Z,28.60
2022-10-12T18:54:07.957Z,27.40
2022-10-12T18:56:36.437Z,19.20
2022-10-12T18:59:04.916Z,16.30
2022-10-12T19:01:34.492Z,11.70
2022-10-12T19:04:02.994Z,10.20
2022-10-12T19:06:32.841Z,7.70
2022-10-12T19:09:02.015Z,6.80
2022-10-12T19:11:31.318Z,6.70
2022-10-12T19:14:04.708Z,6.00
2022-10-12T19:16:32.679Z,5.50
2022-10-12T19:19:06.684Z,5.80
2022-10-12T19:21:35.092Z,5.40
2022-10-12T19:24:04.362Z,5.90
2022-10-12T19:26:32.956Z,5.70
2022-10-12T19:29:01.680Z,5.90
2022-10-12T19:31:32.933Z,5.50
2022-10-12T19:34:02.787Z,5.80
2022-10-12T19:36:31.267Z,6.10
2022-10-12T19:39:00.998Z,6.60
2022-10-12T19:41:30.334Z,9.30
2022-10-12T19:43:58.552Z,9.40
2022-10-12T19:46:26.832Z,10.30
2022-10-12T19:48:55.820Z,10.40
2022-10-12T19:51:24.824Z,9.00
2022-10-12T19:53:56.773Z,9.50
2022-10-12T19:56:24.843Z,9.20
2022-10-12T19:58:53.442Z,10.80
2022-10-12T20:01:24.629Z,11.60
2022-10-12T20:03:54.177Z,12.20
2022-10-12T20:06:25.752Z,11.60
2022-10-12T20:08:55.679Z,10.50
2022-10-12T20:11:24.903Z,11.30
2022-10-12T20:13:53.729Z,10.90
2022-10-12T20:16:22.410Z,12.10
2022-10-12T20:18:52.843Z,11.70
2022-10-12T20:21:22.340Z,11.50
2022-10-12T20:23:51.505Z,12.10
2022-10-12T20:26:21.065Z,11.40
2022-10-12T20:28:50.865Z,12.20
2022-10-12T20:31:23.332Z,11.00
2022-10-12T20:33:53.123Z,11.20
2022-10-12T20:36:22.860Z,11.70
2022-10-12T20:38:51.748Z,12.60
2022-10-12T20:41:21.753Z,11.60
2022-10-12T20:43:49.628Z,11.40
2022-10-12T20:46:18.414Z,12.20
2022-10-12T20:48:46.381Z,11.90
2022-10-12T20:51:20.196Z,12.90
2022-10-12T20:53:47.949Z,11.30
2022-10-12T20:56:15.727Z,11.90
2022-10-12T20:58:43.478Z,11.80
2022-10-12T21:01:12.770Z,11.50
2022-10-12T21:03:41.053Z,11.40
2022-10-12T21:06:11.702Z,11.70
2022-10-12T21:08:41.045Z,10.90
2022-10-12T21:11:10.179Z,10.80
2022-10-12T21:13:41.230Z,11.00
2022-10-12T21:16:09.692Z,10.80
2022-10-12T21:18:38.533Z,11.30
2022-10-12T21:21:08.929Z,10.90
2022-10-12T21:23:37.399Z,11.10
2022-10-12T21:26:12.925Z,11.90
2022-10-12T21:28:41.631Z,11.00
2022-10-12T21:31:10.522Z,11.10
2022-10-12T21:33:39.303Z,10.70
2022-10-12T21:36:11.779Z,11.00
2022-10-12T21:38:40.461Z,10.30
2022-10-12T21:41:08.724Z,10.30
2022-10-12T21:43:37.524Z,9.20
2022-10-12T21:46:13.079Z,9.40
2022-10-12T21:48:41.038Z,9.70
2022-10-12T21:51:11.881Z,9.10
2022-10-12T21:53:40.812Z,9.80
2022-10-12T21:56:14.264Z,8.50
2022-10-12T21:58:42.844Z,9.80
2022-10-12T22:01:12.202Z,9.00
2022-10-12T22:03:40.629Z,9.10
2022-10-12T22:06:12.223Z,8.30
2022-10-12T22:08:40.768Z,8.10
2022-10-12T22:11:10.300Z,8.90
2022-10-12T22:13:39.055Z,9.60
2022-10-12T22:16:08.582Z,9.40
2022-10-12T22:18:36.536Z,9.60
2022-10-12T22:21:05.850Z,10.40
2022-10-12T22:23:34.310Z,10.60
2022-10-12T22:26:03.582Z,10.80
2022-10-12T22:28:31.843Z,11.20
2022-10-12T22:30:59.966Z,10.70
2022-10-12T22:33:28.061Z,11.10
2022-10-12T22:36:00.638Z,11.20
2022-10-12T22:38:28.973Z,11.60
2022-10-12T22:40:58.260Z,10.90
2022-10-12T22:43:28.373Z,11.40
2022-10-12T22:45:56.883Z,10.90
2022-10-12T22:48:25.565Z,11.30
2022-10-12T22:50:55.784Z,11.70
2022-10-12T22:53:24.883Z,11.70
2022-10-12T22:55:58.548Z,10.50
2022-10-12T22:58:26.442Z,11.10
2022-10-12T23:01:00.984Z,10.80
2022-10-12T23:03:29.648Z,10.80
2022-10-12T23:05:57.476Z,11.30
2022-10-12T23:08:25.994Z,11.40
2022-10-12T23:10:54.064Z,11.70
2022-10-12T23:13:21.818Z,12.00
2022-10-12T23:15:49.592Z,11.30
2022-10-12T23:18:17.356Z,10.60
2022-10-12T23:20:45.029Z,10.60
2022-10-12T23:23:12.987Z,11.30
2022-10-12T23:25:40.749Z,11.20
2022-10-12T23:28:09.646Z,11.30
2022-10-12T23:30:37.922Z,11.40
2022-10-12T23:33:05.997Z,11.40
2022-10-12T23:35:33.964Z,11.30
2022-10-12T23:38:01.722Z,11.70
2022-10-12T23:40:29.481Z,10.60
2022-10-12T23:42:57.862Z,10.60
2022-10-12T23:45:25.622Z,11.00
2022-10-12T23:47:53.460Z,11.10
2022-10-12T23:50:21.151Z,10.90
2022-10-12T23:52:49.219Z,10.60
2022-10-12T23:55:17.702Z,10.90
2022-10-12T23:57:47.391Z,10.60
